Weather at Tindouf Airport

Public forecast

Using degrees Celsius for public forecast. Weather courtesy of forecast.io.

Current aviation weather report (METAR) for Tindouf Airport

Retrieved 2021/01/20 02:00 UTC (12 minutes ago):

DAOF 200200Z 02006KT CAVOK 08/M12 Q1023

Aviation forecast (TAF) for Tindouf Airport

Forecast is more than 12 hours old.

Retrieved 2017/11/09 18:03 UTC (3 years ago):

TAF DAOF 091700Z 0918/1009 32010KT 9999 SCT040 BKN100 PROB30 TEMPO 0918/0921 FEW033CB